Terminal Aerodrome Forecast
Issued by NWS

Current Version | Previous Version | Text Only | Print | Product List | Glossary On
Versions: 1 2 3 4 5 6 7 8 9 10 11 12 13 14 15 16 17 18 19 20 21 22 23 24 25
073
FTUS42 KKEY 270629 AAA
TAFMTH
TAF AMD
KMTH 270629Z 2706/2806 VRB04KT P6SM FEW020 SCT070
      TEMPO 2706/2710 5SM SHRA BKN020=

USA.gov is the U.S. government's official web portal to all federal, state and local government web resources and services.